Time;durP1;ratioP1;P1;durP2;ratioP2;P2;SDS_P1;SDS_P2;PMS_P1;PMS_P2;Temp;Humidity;BMP_temperature;BMP_pressure;BME280_temperature;BME280_humidity;BME280_pressure;Samples;Min_cycle;Max_cycle;Signal;HPM_P1;HPM_P2
2022/07/28 00:01:05;;;;;;;1.95;0.35;;;14.20;99.90;;;;;;5093256;28;20060;-72
2022/07/28 00:03:33;;;;;;;2.10;0.45;;;14.20;99.90;;;;;;5091977;28;20020;-72
2022/07/28 00:05:59;;;;;;;1.02;0.00;;;14.20;99.90;;;;;;5093507;28;20469;-72
2022/07/28 00:08:24;;;;;;;2.20;0.00;;;14.20;99.90;;;;;;5091754;28;20027;-72
2022/07/28 00:10:50;;;;;;;1.50;0.00;;;14.20;99.90;;;;;;5093392;28;20478;-72
2022/07/28 00:13:15;;;;;;;1.08;0.00;;;14.20;99.90;;;;;;5093150;28;20020;-72
2022/07/28 00:15:41;;;;;;;0.10;0.00;;;14.20;99.90;;;;;;5093147;28;20024;-72
2022/07/28 00:18:06;;;;;;;1.17;0.00;;;14.20;99.90;;;;;;5093126;28;20028;-72
2022/07/28 00:20:32;;;;;;;2.10;0.00;;;14.20;99.90;;;;;;5093322;28;20020;-72
2022/07/28 00:22:57;;;;;;;0.70;0.00;;;14.10;99.90;;;;;;5093043;28;20032;-72
2022/07/28 00:25:23;;;;;;;0.63;0.00;;;14.10;99.90;;;;;;5093077;28;20026;-72
2022/07/28 00:27:49;;;;;;;0.10;0.10;;;14.10;99.90;;;;;;5092952;28;20030;-72
2022/07/28 00:30:14;;;;;;;0.45;0.10;;;14.00;99.90;;;;;;5093114;28;20077;-72
2022/07/28 00:32:40;;;;;;;0.88;0.00;;;14.00;99.90;;;;;;5096961;28;20044;-73
2022/07/28 00:35:06;;;;;;;3.83;0.17;;;13.90;99.90;;;;;;5097131;28;20016;-72
2022/07/28 00:37:32;;;;;;;0.85;0.00;;;13.90;99.90;;;;;;5096304;28;20024;-72
2022/07/28 00:39:57;;;;;;;6.03;0.10;;;13.90;99.90;;;;;;5097223;28;20477;-72
2022/07/28 00:42:23;;;;;;;1.85;0.10;;;13.80;99.90;;;;;;5096685;28;20028;-72
2022/07/28 00:44:48;;;;;;;0.43;0.00;;;13.80;99.90;;;;;;5096727;28;20028;-72
2022/07/28 00:47:18;;;;;;;0.73;0.00;;;13.80;99.90;;;;;;5097097;28;20028;-72
2022/07/28 00:49:45;;;;;;;4.32;0.00;;;13.80;99.90;;;;;;5096452;28;20016;-72
2022/07/28 00:52:12;;;;;;;1.35;0.10;;;13.70;99.90;;;;;;5096528;28;20107;-72
2022/07/28 00:54:38;;;;;;;1.23;0.03;;;13.70;99.90;;;;;;5096780;28;20424;-72
2022/07/28 00:57:03;;;;;;;1.17;0.00;;;13.60;99.90;;;;;;5095224;28;20020;-72
2022/07/28 00:59:30;;;;;;;0.73;0.00;;;13.60;99.90;;;;;;5096294;28;20150;-72
2022/07/28 01:01:55;;;;;;;1.27;0.00;;;13.60;99.90;;;;;;5096675;28;20068;-72
2022/07/28 01:04:22;;;;;;;0.43;0.05;;;13.50;99.90;;;;;;5096572;28;20110;-72
2022/07/28 01:06:52;;;;;;;0.80;0.00;;;13.50;99.90;;;;;;5096406;28;20095;-72
2022/07/28 01:09:32;;;;;;;0.57;0.00;;;13.50;99.90;;;;;;5096044;28;20032;-72
2022/07/28 01:12:10;;;;;;;1.75;0.03;;;13.40;99.90;;;;;;5096187;28;20461;-72
2022/07/28 01:14:37;;;;;;;4.32;0.00;;;13.40;99.90;;;;;;5096144;28;20022;-71
2022/07/28 01:17:16;;;;;;;0.52;0.03;;;13.40;99.90;;;;;;5096039;28;20434;-72
2022/07/28 01:19:54;;;;;;;;;;;13.30;99.90;;;;;;5096669;28;20028;-71
2022/07/28 01:22:21;;;;;;;0.40;0.00;;;13.30;99.90;;;;;;5096117;28;19911;-72
2022/07/28 01:24:59;;;;;;;0.80;0.00;;;13.30;99.90;;;;;;5095841;28;20104;-71
2022/07/28 01:28:01;;;;;;;0.43;0.10;;;13.30;99.90;;;;;;5095739;28;20032;-71
2022/07/28 01:30:37;;;;;;;1.30;0.00;;;13.20;99.90;;;;;;5096028;28;20109;-71
2022/07/28 01:33:18;;;;;;;0.55;0.00;;;13.20;99.90;;;;;;5095696;28;20013;-71
2022/07/28 01:35:50;;;;;;;0.88;0.20;;;13.20;99.90;;;;;;5096192;28;20029;-72
2022/07/28 01:38:17;;;;;;;5.65;0.45;;;13.20;99.90;;;;;;5095614;28;20103;-71
2022/07/28 01:40:45;;;;;;;1.70;0.00;;;13.10;99.90;;;;;;5095512;28;20478;-71
2022/07/28 01:43:15;;;;;;;1.92;0.00;;;13.10;99.90;;;;;;5094725;28;20384;-71
2022/07/28 01:45:43;;;;;;;1.27;0.00;;;13.10;99.90;;;;;;5095554;28;20441;-72
2022/07/28 01:48:10;;;;;;;0.90;0.00;;;13.00;99.90;;;;;;5095884;28;20373;-72
2022/07/28 01:50:37;;;;;;;0.32;0.00;;;13.00;99.90;;;;;;5095421;28;20452;-72
2022/07/28 01:53:03;;;;;;;2.17;0.10;;;13.00;99.90;;;;;;5095319;28;20012;-72
2022/07/28 01:55:31;;;;;;;0.98;0.15;;;13.00;99.90;;;;;;5095278;28;20019;-72
2022/07/28 01:57:58;;;;;;;6.72;0.30;;;13.00;99.90;;;;;;5094273;28;20020;-72
2022/07/28 02:00:26;;;;;;;0.75;0.00;;;12.90;99.90;;;;;;5095083;28;20020;-72
2022/07/28 02:02:54;;;;;;;0.70;0.00;;;12.90;99.90;;;;;;5095416;28;20031;-72
2022/07/28 02:05:22;;;;;;;1.20;0.10;;;12.90;99.90;;;;;;5093868;28;20503;-72
2022/07/28 02:07:50;;;;;;;0.88;0.20;;;12.90;99.90;;;;;;5095346;28;20845;-72
2022/07/28 02:10:17;;;;;;;1.83;0.00;;;13.00;99.90;;;;;;5094957;28;20020;-72
2022/07/28 02:12:45;;;;;;;2.10;0.10;;;13.00;99.90;;;;;;5094990;28;20072;-72
2022/07/28 02:15:13;;;;;;;2.28;0.00;;;13.00;99.90;;;;;;5095427;28;20016;-72
2022/07/28 02:17:43;;;;;;;1.52;0.00;;;13.00;99.90;;;;;;5094835;28;20020;-72
2022/07/28 02:20:11;;;;;;;0.82;0.00;;;13.00;99.90;;;;;;5094820;28;20023;-72
2022/07/28 02:22:39;;;;;;;1.35;0.00;;;13.00;99.90;;;;;;5093513;28;20024;-72
2022/07/28 02:25:06;;;;;;;0.38;0.00;;;13.00;99.90;;;;;;5095350;28;20027;-72
2022/07/28 02:27:51;;;;;;;1.13;0.13;;;12.90;99.90;;;;;;5094467;28;20110;-72
2022/07/28 02:30:30;;;;;;;0.45;0.00;;;12.90;99.90;;;;;;5094670;28;20044;-72
2022/07/28 02:33:02;;;;;;;1.90;0.05;;;12.90;99.90;;;;;;5094600;28;20103;-72
2022/07/28 02:35:39;;;;;;;2.00;0.00;;;12.90;99.90;;;;;;5093311;28;20065;-72
2022/07/28 02:38:10;;;;;;;2.10;0.40;;;12.90;99.90;;;;;;5094736;28;20077;-72
2022/07/28 02:40:39;;;;;;;1.40;0.00;;;12.90;99.90;;;;;;5094761;28;20024;-72
2022/07/28 02:43:10;;;;;;;1.92;0.38;;;12.90;99.90;;;;;;5094522;28;20027;-72
2022/07/28 02:45:40;;;;;;;2.15;0.00;;;12.90;99.90;;;;;;5094436;28;20020;-72
2022/07/28 02:48:10;;;;;;;1.83;0.00;;;12.90;99.90;;;;;;5092965;28;20026;-72
2022/07/28 02:50:39;;;;;;;0.40;0.00;;;12.80;99.90;;;;;;5094750;28;20475;-72
2022/07/28 02:53:05;;;;;;;1.48;0.00;;;12.80;99.90;;;;;;5094068;28;20538;-72
2022/07/28 02:55:32;;;;;;;0.80;0.13;;;12.90;99.90;;;;;;5094115;28;20047;-72
2022/07/28 02:57:59;;;;;;;1.63;0.10;;;12.90;99.90;;;;;;5094053;28;20099;-72
2022/07/28 03:00:26;;;;;;;2.15;0.00;;;12.90;99.90;;;;;;5094045;28;20028;-72
2022/07/28 03:02:54;;;;;;;2.20;0.00;;;12.80;99.90;;;;;;5094054;28;20500;-72
2022/07/28 03:05:20;;;;;;;1.03;0.00;;;12.80;99.90;;;;;;5093963;28;20047;-72
2022/07/28 03:07:51;;;;;;;0.00;0.00;;;12.80;99.90;;;;;;5093838;28;20113;-72
2022/07/28 03:10:26;;;;;;;1.65;0.10;;;12.80;99.90;;;;;;5093905;28;20017;-72
2022/07/28 03:12:53;;;;;;;1.42;0.00;;;12.70;99.90;;;;;;5094194;28;20385;-72
2022/07/28 03:15:19;;;;;;;0.70;0.00;;;12.70;99.90;;;;;;5093851;28;20099;-72
2022/07/28 03:17:45;;;;;;;0.47;0.00;;;12.70;99.90;;;;;;5092554;28;20117;-72
2022/07/28 03:20:11;;;;;;;1.52;0.00;;;12.70;99.90;;;;;;5093694;28;20480;-72
2022/07/28 03:22:37;;;;;;;3.38;0.47;;;12.60;99.90;;;;;;5093776;28;20028;-72
2022/07/28 03:25:14;;;;;;;0.45;0.00;;;12.60;99.90;;;;;;5093990;28;20472;-72
2022/07/28 03:27:44;;;;;;;1.67;0.22;;;12.60;99.90;;;;;;5092403;28;20032;-72
2022/07/28 03:30:20;;;;;;;3.55;0.20;;;12.60;99.90;;;;;;5093884;28;20396;-72
2022/07/28 03:32:50;;;;;;;0.50;0.00;;;12.60;99.90;;;;;;5093679;28;20024;-72
2022/07/28 03:35:16;;;;;;;0.25;0.00;;;12.50;99.90;;;;;;5094091;28;20508;-72
2022/07/28 03:37:48;;;;;;;2.80;0.00;;;12.50;99.90;;;;;;5094097;28;20511;-72
2022/07/28 03:40:15;;;;;;;0.45;0.00;;;12.50;99.90;;;;;;5093476;28;20044;-72
2022/07/28 03:42:46;;;;;;;0.98;0.00;;;12.50;99.90;;;;;;5093461;28;20531;-72
2022/07/28 03:45:13;;;;;;;0.70;0.00;;;12.50;99.90;;;;;;5093460;28;20020;-72
2022/07/28 03:47:51;;;;;;;1.00;0.03;;;12.50;99.90;;;;;;5093314;28;20024;-72
2022/07/28 03:50:21;;;;;;;2.15;0.00;;;12.50;99.90;;;;;;5093835;28;20023;-72
2022/07/28 03:52:46;;;;;;;2.03;0.00;;;12.50;99.90;;;;;;5093356;28;20020;-72
2022/07/28 03:55:13;;;;;;;1.27;0.00;;;12.50;99.90;;;;;;5093892;28;20030;-72
2022/07/28 03:57:39;;;;;;;0.80;0.00;;;12.50;99.90;;;;;;5093565;28;20572;-72
2022/07/28 04:00:05;;;;;;;1.17;0.10;;;12.50;99.90;;;;;;5091987;28;20115;-72
2022/07/28 04:02:33;;;;;;;0.70;0.00;;;12.50;99.90;;;;;;5093232;28;20024;-72
2022/07/28 04:04:59;;;;;;;0.57;0.10;;;12.50;99.90;;;;;;5093228;28;20028;-72
2022/07/28 04:07:24;;;;;;;1.05;0.00;;;12.50;99.90;;;;;;5096827;28;20073;-72
2022/07/28 04:09:50;;;;;;;0.20;0.00;;;12.60;99.90;;;;;;5098378;28;20514;-72
2022/07/28 04:12:16;;;;;;;2.47;0.03;;;12.50;99.90;;;;;;5097558;28;20423;-72
2022/07/28 04:14:41;;;;;;;2.80;0.15;;;12.60;99.90;;;;;;5097288;28;20520;-72
2022/07/28 04:17:07;;;;;;;0.15;0.08;;;12.60;99.90;;;;;;5097239;28;20384;-72
2022/07/28 04:19:32;;;;;;;0.43;0.00;;;12.60;99.90;;;;;;5097104;28;20059;-72
2022/07/28 04:21:58;;;;;;;1.38;0.00;;;12.70;99.90;;;;;;5096915;28;20435;-72
2022/07/28 04:24:23;;;;;;;2.10;0.00;;;12.70;99.90;;;;;;5097213;28;20030;-72
2022/07/28 04:26:49;;;;;;;0.15;0.03;;;12.80;99.90;;;;;;5096967;28;20024;-72
2022/07/28 04:29:14;;;;;;;1.38;0.00;;;12.80;99.90;;;;;;5097330;28;20036;-72
2022/07/28 04:31:40;;;;;;;0.57;0.05;;;12.90;99.90;;;;;;5097231;28;20028;-72
2022/07/28 04:34:06;;;;;;;2.72;0.00;;;12.90;99.90;;;;;;5095677;28;20380;-72
2022/07/28 04:36:31;;;;;;;1.45;0.17;;;13.00;99.90;;;;;;5095584;28;20480;-72
2022/07/28 04:38:58;;;;;;;0.85;0.15;;;12.90;99.90;;;;;;5096876;28;20031;-72
2022/07/28 04:41:25;;;;;;;2.25;0.10;;;13.00;99.90;;;;;;5096951;28;20039;-72
2022/07/28 04:43:51;;;;;;;3.25;0.68;;;13.00;99.90;;;;;;5095395;28;20016;-72
2022/07/28 04:46:17;;;;;;;2.17;0.00;;;13.00;99.90;;;;;;5095257;28;20503;-72
2022/07/28 04:48:44;;;;;;;2.92;0.00;;;13.00;99.90;;;;;;5097153;28;20381;-72
2022/07/28 04:51:09;;;;;;;2.60;0.10;;;13.00;99.90;;;;;;5096517;28;20024;-72
2022/07/28 04:53:35;;;;;;;1.17;0.00;;;13.00;99.90;;;;;;5096460;28;20016;-72
2022/07/28 04:56:01;;;;;;;0.57;0.05;;;13.10;99.90;;;;;;5096723;28;20031;-72
2022/07/28 04:58:27;;;;;;;4.53;0.38;;;13.00;99.90;;;;;;5095157;28;20396;-72
2022/07/28 05:00:52;;;;;;;3.88;0.40;;;13.10;99.90;;;;;;5096306;28;20065;-72
2022/07/28 05:03:19;;;;;;;3.13;0.00;;;13.10;99.90;;;;;;5096350;28;20024;-72
2022/07/28 05:05:45;;;;;;;1.65;0.00;;;13.10;99.90;;;;;;5096408;28;20024;-72
2022/07/28 05:08:10;;;;;;;2.90;0.08;;;13.10;99.90;;;;;;5096081;28;20485;-72
2022/07/28 05:10:36;;;;;;;2.13;0.38;;;13.10;99.90;;;;;;5096346;28;20016;-71
2022/07/28 05:13:05;;;;;;;0.40;0.00;;;13.20;99.90;;;;;;5096083;28;20464;-72
2022/07/28 05:15:31;;;;;;;1.77;0.00;;;13.30;99.90;;;;;;5096284;28;20026;-72
2022/07/28 05:17:57;;;;;;;4.53;0.30;;;13.40;99.90;;;;;;5096465;28;20028;-74
2022/07/28 05:20:22;;;;;;;1.52;0.35;;;13.50;99.90;;;;;;5094687;28;20023;-75
2022/07/28 05:22:56;;;;;;;1.08;0.00;;;13.60;99.90;;;;;;5096047;28;20031;-72
2022/07/28 05:25:23;;;;;;;1.45;0.00;;;13.70;99.90;;;;;;5095953;28;20020;-72
2022/07/28 05:27:49;;;;;;;0.98;0.10;;;13.70;99.90;;;;;;5096039;28;20024;-74
2022/07/28 05:30:16;;;;;;;0.47;0.05;;;13.80;99.90;;;;;;5094595;28;20024;-72
2022/07/28 05:32:44;;;;;;;7.03;0.15;;;13.90;99.90;;;;;;5094472;28;20020;-72
2022/07/28 05:35:10;;;;;;;2.70;0.00;;;14.00;99.90;;;;;;5094487;28;20103;-72
2022/07/28 05:37:36;;;;;;;1.58;0.10;;;14.10;99.90;;;;;;5095681;28;20134;-72
2022/07/28 05:40:07;;;;;;;1.00;0.00;;;14.20;99.90;;;;;;5095846;28;20443;-73
2022/07/28 05:42:34;;;;;;;1.75;0.00;;;14.30;99.90;;;;;;5094337;28;20024;-72
2022/07/28 05:45:02;;;;;;;1.60;0.00;;;14.60;99.90;;;;;;5094171;28;20031;-72
2022/07/28 05:47:28;;;;;;;2.05;0.35;;;14.80;99.90;;;;;;5094221;28;20024;-72
2022/07/28 05:49:58;;;;;;;3.30;0.00;;;15.00;99.90;;;;;;5095377;28;20028;-72
2022/07/28 05:52:25;;;;;;;0.98;0.00;;;15.20;99.90;;;;;;5095627;28;20416;-72
2022/07/28 05:54:51;;;;;;;0.95;0.00;;;15.20;99.90;;;;;;5094088;28;20020;-72
2022/07/28 05:57:16;;;;;;;1.45;0.25;;;15.40;99.90;;;;;;5095244;28;20020;-73
2022/07/28 05:59:42;;;;;;;2.45;0.00;;;15.40;99.90;;;;;;5093893;28;20012;-73
2022/07/28 06:02:10;;;;;;;3.15;0.00;;;15.40;99.90;;;;;;5095513;28;20073;-72
2022/07/28 06:04:35;;;;;;;0.30;0.00;;;15.50;99.90;;;;;;5095112;28;20389;-72
2022/07/28 06:07:01;;;;;;;1.85;0.32;;;15.50;99.90;;;;;;5094971;28;20025;-72
2022/07/28 06:09:26;;;;;;;3.10;0.00;;;15.50;99.90;;;;;;5095365;28;20028;-73
2022/07/28 06:11:52;;;;;;;0.20;0.13;;;15.50;99.90;;;;;;5093590;28;20069;-73
2022/07/28 06:14:18;;;;;;;3.28;0.03;;;15.50;99.90;;;;;;5095059;28;20439;-72
2022/07/28 06:16:43;;;;;;;1.33;0.00;;;15.50;99.90;;;;;;5094938;28;20099;-72
2022/07/28 06:19:10;;;;;;;2.83;0.35;;;15.50;99.90;;;;;;5093981;28;20052;-73
2022/07/28 06:21:35;;;;;;;2.00;0.00;;;15.50;99.90;;;;;;5094771;28;20122;-73
2022/07/28 06:24:01;;;;;;;0.52;0.00;;;15.50;99.90;;;;;;5094851;28;20081;-72
2022/07/28 06:26:26;;;;;;;0.52;0.00;;;15.60;99.90;;;;;;5095137;28;20020;-73
2022/07/28 06:28:52;;;;;;;1.75;0.00;;;15.60;99.90;;;;;;5094171;28;20107;-72
2022/07/28 06:31:18;;;;;;;1.55;0.00;;;15.60;99.90;;;;;;5094546;28;20025;-72
2022/07/28 06:33:43;;;;;;;1.20;0.10;;;15.60;99.90;;;;;;5094811;28;20385;-73
2022/07/28 06:36:09;;;;;;;2.85;0.20;;;15.70;99.90;;;;;;5094582;28;20059;-73
2022/07/28 06:38:34;;;;;;;3.70;0.00;;;15.70;99.90;;;;;;5094736;28;20066;-73
2022/07/28 06:41:00;;;;;;;4.22;0.00;;;15.70;99.90;;;;;;5094593;28;20031;-73
2022/07/28 06:43:26;;;;;;;0.08;0.00;;;15.70;99.90;;;;;;5094302;28;20024;-73
2022/07/28 06:45:51;;;;;;;1.17;0.00;;;15.80;99.90;;;;;;5092802;28;20051;-73
2022/07/28 06:48:18;;;;;;;0.93;0.10;;;15.80;99.90;;;;;;5092975;28;20013;-73
2022/07/28 06:50:44;;;;;;;0.65;0.10;;;15.90;99.90;;;;;;5094199;28;20493;-73
2022/07/28 06:53:10;;;;;;;2.63;0.00;;;15.90;99.90;;;;;;5092954;28;20020;-73
2022/07/28 06:55:36;;;;;;;0.65;0.00;;;16.00;99.90;;;;;;5094459;28;20016;-73
2022/07/28 06:58:05;;;;;;;0.35;0.00;;;16.10;99.90;;;;;;5092887;28;20034;-73
2022/07/28 07:00:31;;;;;;;2.28;0.00;;;16.20;99.90;;;;;;5094014;28;20034;-73
2022/07/28 07:02:56;;;;;;;0.95;0.22;;;16.40;99.90;;;;;;5094044;28;20114;-73
2022/07/28 07:05:22;;;;;;;2.05;0.00;;;16.40;99.90;;;;;;5094531;28;20047;-73
2022/07/28 07:07:48;;;;;;;0.40;0.00;;;16.40;99.90;;;;;;5100865;22;20537;-74
2022/07/28 07:10:13;;;;;;;0.88;0.03;;;16.60;99.90;;;;;;5113780;28;20049;-74
2022/07/28 07:12:39;;;;;;;1.38;0.10;;;16.80;99.90;;;;;;5114602;28;20028;-74
2022/07/28 07:15:05;;;;;;;0.63;0.10;;;17.10;99.90;;;;;;5114244;28;20094;-75
2022/07/28 07:17:31;;;;;;;0.32;0.00;;;17.20;99.90;;;;;;5114160;28;20036;-75
2022/07/28 07:19:57;;;;;;;1.70;0.00;;;17.40;99.90;;;;;;5112794;28;20539;-74
2022/07/28 07:22:23;;;;;;;1.10;0.00;;;17.40;99.90;;;;;;5114397;28;20028;-74
2022/07/28 07:24:48;;;;;;;0.55;0.00;;;17.40;99.90;;;;;;5114267;27;20072;-74
2022/07/28 07:27:14;;;;;;;1.75;0.00;;;17.40;99.90;;;;;;5113936;28;20028;-74
2022/07/28 07:29:40;;;;;;;1.98;0.10;;;17.40;99.90;;;;;;5113949;28;20098;-74
2022/07/28 07:32:06;;;;;;;1.75;0.10;;;18.30;99.90;;;;;;5115035;28;20022;-74
2022/07/28 07:34:31;;;;;;;2.92;0.05;;;17.70;99.90;;;;;;5114489;28;20375;-74
2022/07/28 07:36:57;;;;;;;0.10;0.00;;;17.80;99.90;;;;;;5113947;28;20024;-74
2022/07/28 07:39:22;;;;;;;3.10;0.00;;;17.90;99.90;;;;;;5113788;28;20084;-74
2022/07/28 07:41:48;;;;;;;2.67;0.15;;;17.90;99.90;;;;;;5111961;28;20109;-74
2022/07/28 07:44:13;;;;;;;0.45;0.00;;;18.10;99.80;;;;;;5113802;28;20028;-74
2022/07/28 07:46:39;;;;;;;1.13;0.15;;;18.20;98.90;;;;;;5113721;28;20031;-74
2022/07/28 07:49:05;;;;;;;1.10;0.00;;;18.50;98.70;;;;;;5113815;28;20019;-74
2022/07/28 07:51:31;;;;;;;2.05;0.10;;;18.50;98.30;;;;;;5113810;28;20476;-74
2022/07/28 07:53:56;;;;;;;1.90;0.00;;;18.40;97.50;;;;;;5113745;28;20126;-74
2022/07/28 07:56:22;;;;;;;1.38;0.00;;;18.40;97.50;;;;;;5113657;28;20024;-74
2022/07/28 07:58:48;;;;;;;0.10;0.00;;;18.50;97.40;;;;;;5112454;28;20024;-74
2022/07/28 08:01:14;;;;;;;2.58;0.00;;;18.60;96.90;;;;;;5113893;28;20380;-74
2022/07/28 08:03:39;;;;;;;0.40;0.00;;;18.60;96.60;;;;;;5113915;28;20016;-74
2022/07/28 08:06:05;;;;;;;1.90;0.00;;;18.80;95.90;;;;;;5113934;28;20016;-74
2022/07/28 08:08:31;;;;;;;3.17;0.00;;;18.80;95.40;;;;;;5112174;28;20510;-75
2022/07/28 08:10:56;;;;;;;0.30;0.00;;;18.80;95.90;;;;;;5112283;28;20556;-74
2022/07/28 08:13:22;;;;;;;3.47;0.17;;;18.90;94.70;;;;;;5113647;28;20030;-74
2022/07/28 08:15:48;;;;;;;1.08;0.00;;;19.10;93.90;;;;;;5112275;28;20111;-74
2022/07/28 08:18:14;;;;;;;0.32;0.03;;;19.10;94.00;;;;;;5113517;28;20015;-74
2022/07/28 08:20:40;;;;;;;0.00;0.00;;;19.20;93.80;;;;;;5113445;28;20121;-75
2022/07/28 08:23:05;;;;;;;1.42;0.00;;;19.30;94.00;;;;;;5113655;28;20114;-74
2022/07/28 08:25:34;;;;;;;0.15;0.08;;;19.60;94.10;;;;;;5113513;28;20217;-75
2022/07/28 08:28:00;;;;;;;2.70;0.00;;;19.70;92.60;;;;;;5113361;28;20046;-74
2022/07/28 08:30:26;;;;;;;3.10;0.00;;;19.70;91.60;;;;;;5113330;28;20484;-74
2022/07/28 08:32:51;;;;;;;0.47;0.00;;;19.50;91.40;;;;;;5113467;28;20106;-74
2022/07/28 08:35:17;;;;;;;0.57;0.00;;;19.40;90.70;;;;;;5113259;28;20119;-74
2022/07/28 08:37:42;;;;;;;2.95;0.35;;;19.30;91.30;;;;;;5113303;28;20160;-74
2022/07/28 08:40:13;;;;;;;0.13;0.00;;;19.30;91.40;;;;;;5113159;28;20035;-74
2022/07/28 08:42:49;;;;;;;0.30;0.00;;;19.40;90.20;;;;;;5113286;28;20110;-74
2022/07/28 08:45:17;;;;;;;0.52;0.00;;;19.50;90.40;;;;;;5113528;28;20468;-74
2022/07/28 08:47:42;;;;;;;2.95;0.13;;;19.70;90.10;;;;;;5113046;28;20365;-74
2022/07/28 08:50:11;;;;;;;1.20;0.00;;;19.80;89.20;;;;;;5113122;28;20027;-74
2022/07/28 08:52:38;;;;;;;0.05;0.00;;;19.90;88.30;;;;;;5115894;28;20020;-75
2022/07/28 08:55:06;;;;;;;0.45;0.00;;;20.10;87.00;;;;;;5117339;28;20476;-74
2022/07/28 08:57:35;;;;;;;1.55;0.00;;;20.00;88.10;;;;;;5116944;28;20027;-75
2022/07/28 09:00:01;;;;;;;2.13;0.00;;;20.10;87.10;;;;;;5116789;28;20090;-74
2022/07/28 09:02:28;;;;;;;0.00;0.00;;;20.10;86.40;;;;;;5115669;28;20391;-74
2022/07/28 09:04:55;;;;;;;0.80;0.00;;;20.20;85.40;;;;;;5115526;28;20391;-75
2022/07/28 09:07:22;;;;;;;1.88;0.00;;;20.30;84.30;;;;;;5115822;28;20024;-75
2022/07/28 09:09:49;;;;;;;0.57;0.00;;;20.40;84.60;;;;;;5116553;28;20118;-75
2022/07/28 09:12:15;;;;;;;0.10;0.00;;;20.60;84.70;;;;;;5116693;28;20503;-75
2022/07/28 09:14:41;;;;;;;1.33;0.00;;;20.60;83.40;;;;;;5116891;28;20016;-74
2022/07/28 09:17:06;;;;;;;1.90;0.00;;;20.70;81.60;;;;;;5116573;28;20031;-75
2022/07/28 09:19:32;;;;;;;1.63;0.17;;;20.70;80.80;;;;;;5116573;28;20055;-75
2022/07/28 09:21:59;;;;;;;0.10;0.00;;;20.80;80.40;;;;;;5116396;28;20020;-75
2022/07/28 09:24:37;;;;;;;0.52;0.00;;;21.00;79.50;;;;;;5116343;28;20016;-75
2022/07/28 09:27:08;;;;;;;0.00;0.00;;;21.10;78.70;;;;;;5115128;28;20396;-75
2022/07/28 09:29:35;;;;;;;1.38;0.00;;;21.20;76.50;;;;;;5116540;28;20012;-75
2022/07/28 09:32:00;;;;;;;0.80;0.00;;;21.30;75.90;;;;;;5114959;28;20023;-75
2022/07/28 09:34:26;;;;;;;0.55;0.00;;;21.30;76.10;;;;;;5114952;28;20528;-75
2022/07/28 09:36:52;;;;;;;1.67;0.00;;;21.30;76.70;;;;;;5116649;28;20084;-75
2022/07/28 09:39:35;;;;;;;0.20;0.00;;;21.30;74.40;;;;;;5116087;28;20136;-75
2022/07/28 09:42:01;;;;;;;0.13;0.00;;;21.40;74.70;;;;;;5116172;28;20024;-75
2022/07/28 09:44:27;;;;;;;0.45;0.00;;;21.40;73.50;;;;;;5116290;28;20099;-74
2022/07/28 09:46:54;;;;;;;0.00;0.00;;;21.50;74.30;;;;;;5116175;28;20030;-74
2022/07/28 09:49:21;;;;;;;0.65;0.00;;;21.60;73.10;;;;;;5116139;28;20024;-75
2022/07/28 09:52:01;;;;;;;2.67;0.00;;;21.50;72.80;;;;;;5116021;28;20384;-74
2022/07/28 09:54:27;;;;;;;2.45;0.13;;;21.50;73.30;;;;;;5116203;28;20068;-75
2022/07/28 09:56:53;;;;;;;2.40;0.00;;;21.60;71.60;;;;;;5116193;28;20531;-74
2022/07/28 09:59:18;;;;;;;2.05;0.00;;;21.60;71.90;;;;;;5116053;28;20030;-74
2022/07/28 10:01:59;;;;;;;1.92;0.45;;;21.60;71.40;;;;;;5115668;28;20027;-75
2022/07/28 10:04:37;;;;;;;0.55;0.00;;;21.70;70.30;;;;;;5115553;28;20032;-73
2022/07/28 10:07:13;;;;;;;3.92;0.00;;;21.80;71.50;;;;;;5114367;28;20030;-76
2022/07/28 10:09:39;;;;;;;0.15;0.00;;;22.10;71.30;;;;;;5115506;28;20096;-77
2022/07/28 10:12:19;;;;;;;0.00;0.00;;;22.40;69.20;;;;;;5115924;28;20020;-76
2022/07/28 10:14:46;;;;;;;0.47;0.00;;;22.50;68.70;;;;;;5115630;28;20023;-76
2022/07/28 10:17:21;;;;;;;0.20;0.00;;;22.60;69.10;;;;;;5115416;28;20031;-78
2022/07/28 10:19:47;;;;;;;0.30;0.00;;;22.70;69.30;;;;;;5115846;28;20490;-76
2022/07/28 10:22:16;;;;;;;0.52;0.00;;;23.00;69.00;;;;;;5115251;28;20020;-76
2022/07/28 10:24:45;;;;;;;0.10;0.00;;;23.10;66.10;;;;;;5114057;28;20031;-76
2022/07/28 10:27:11;;;;;;;1.67;0.10;;;23.20;65.20;;;;;;5115422;28;20502;-76
2022/07/28 10:29:38;;;;;;;0.80;0.00;;;23.10;65.00;;;;;;5115202;28;20026;-77
2022/07/28 10:32:05;;;;;;;0.28;0.00;;;23.10;66.00;;;;;;5113770;28;20024;-77
2022/07/28 10:34:33;;;;;;;1.55;0.00;;;23.30;66.30;;;;;;5115019;28;20016;-77
2022/07/28 10:37:03;;;;;;;0.30;0.00;;;23.70;65.60;;;;;;5115565;28;20050;-77
2022/07/28 10:39:38;;;;;;;0.65;0.00;;;24.00;65.10;;;;;;5114930;28;20073;-77
2022/07/28 10:42:09;;;;;;;1.45;0.00;;;24.20;62.80;;;;;;5113624;28;20016;-77
2022/07/28 10:44:36;;;;;;;0.63;0.00;;;24.40;61.40;;;;;;5114928;28;20038;-77
2022/07/28 10:47:05;;;;;;;1.90;0.25;;;24.50;59.30;;;;;;5113857;28;20110;-77
2022/07/28 10:49:31;;;;;;;0.17;0.00;;;24.50;59.80;;;;;;5114802;28;20024;-77
2022/07/28 10:51:56;;;;;;;0.43;0.28;;;24.70;59.60;;;;;;5114935;28;20031;-77
2022/07/28 10:54:28;;;;;;;3.78;0.00;;;24.70;59.50;;;;;;5113341;28;20504;-77
2022/07/28 10:56:56;;;;;;;0.95;0.00;;;24.70;58.20;;;;;;5113519;28;20433;-77
2022/07/28 11:00:00;;;;;;;0.00;0.00;;;24.80;58.80;;;;;;5113360;28;20461;-77
2022/07/28 11:02:59;;;;;;;1.52;0.00;;;24.70;57.50;;;;;;5114265;28;20081;-76
2022/07/28 11:05:37;;;;;;;0.63;0.00;;;24.70;57.90;;;;;;5114519;28;20046;-76
2022/07/28 11:08:07;;;;;;;0.28;0.10;;;24.70;57.10;;;;;;5112936;28;20028;-76
2022/07/28 11:10:47;;;;;;;0.88;0.00;;;24.50;57.60;;;;;;5114368;28;20024;-76
2022/07/28 11:13:29;;;;;;;0.38;0.00;;;24.50;58.00;;;;;;5114367;28;20519;-77
2022/07/28 11:16:17;;;;;;;1.50;0.00;;;24.50;59.80;;;;;;5114415;28;20033;-77
2022/07/28 11:19:07;;;;;;;0.00;0.00;;;24.60;58.30;;;;;;5114802;28;20081;-77
2022/07/28 11:21:33;;;;;;;0.80;0.00;;;24.70;57.00;;;;;;5102656;28;20028;-77
2022/07/28 11:23:59;;;;;;;0.17;0.00;;;24.70;59.70;;;;;;5113046;28;20015;-77
2022/07/28 11:26:27;;;;;;;0.95;0.00;;;24.90;59.30;;;;;;5114125;28;20426;-77
2022/07/28 11:29:05;;;;;;;2.13;0.57;;;25.10;56.40;;;;;;5114387;28;20077;-77
2022/07/28 11:31:43;;;;;;;;;;;25.10;56.90;;;;;;5114471;28;20476;-77
2022/07/28 11:34:19;;;;;;;0.32;0.00;;;25.20;57.30;;;;;;5114618;28;19903;-77
2022/07/28 11:37:04;;;;;;;2.47;0.00;;;25.40;58.20;;;;;;5114255;28;20090;-77
2022/07/28 11:39:35;;;;;;;0.25;0.00;;;25.40;54.90;;;;;;5112595;28;20034;-77
2022/07/28 11:42:23;;;;;;;1.27;0.00;;;25.60;56.90;;;;;;5114027;28;20016;-77
2022/07/28 11:44:48;;;;;;;0.00;0.00;;;25.70;55.10;;;;;;5112609;28;20503;-77
2022/07/28 11:47:19;;;;;;;1.77;0.00;;;25.60;56.90;;;;;;5113978;28;20027;-77
2022/07/28 11:50:05;;;;;;;0.00;0.00;;;25.50;56.60;;;;;;5113718;28;20024;-77
2022/07/28 11:52:30;;;;;;;0.90;0.00;;;25.60;56.20;;;;;;5112465;28;20023;-76
2022/07/28 11:54:56;;;;;;;1.45;0.00;;;25.70;55.10;;;;;;5113764;28;20103;-76
2022/07/28 11:57:24;;;;;;;2.03;0.28;;;25.50;54.20;;;;;;5112546;28;20044;-77
2022/07/28 11:59:53;;;;;;;0.90;0.00;;;25.40;55.40;;;;;;5113631;28;20480;-76
2022/07/28 12:02:22;;;;;;;0.70;0.00;;;25.70;55.00;;;;;;5113756;28;20016;-76
2022/07/28 12:04:56;;;;;;;0.10;0.00;;;26.30;55.70;;;;;;5114171;28;20102;-77
2022/07/28 12:07:34;;;;;;;0.20;0.00;;;25.90;53.90;;;;;;5113731;28;20034;-77
2022/07/28 12:10:00;;;;;;;2.00;0.20;;;25.60;54.40;;;;;;5113430;28;20028;-77
2022/07/28 12:12:30;;;;;;;0.60;0.00;;;25.40;54.60;;;;;;5112333;28;20019;-77
2022/07/28 12:14:56;;;;;;;1.55;0.00;;;25.30;55.10;;;;;;5113555;28;20424;-77
2022/07/28 12:17:31;;;;;;;1.65;0.00;;;25.30;55.20;;;;;;5113637;28;20085;-77
2022/07/28 12:20:03;;;;;;;0.65;0.00;;;25.30;55.30;;;;;;5113957;28;20031;-76
2022/07/28 12:22:29;;;;;;;0.30;0.00;;;25.30;55.60;;;;;;5113567;28;20027;-77
2022/07/28 12:24:57;;;;;;;0.22;0.00;;;25.30;54.10;;;;;;5113545;28;20511;-77
2022/07/28 12:27:27;;;;;;;0.85;0.00;;;25.60;55.20;;;;;;5115439;28;20098;-77
2022/07/28 12:30:03;;;;;;;1.25;0.00;;;25.70;53.80;;;;;;5117746;28;20011;-76
2022/07/28 12:32:31;;;;;;;0.43;0.00;;;25.90;54.40;;;;;;5117632;28;20153;-76
2022/07/28 12:34:57;;;;;;;0.30;0.00;;;25.90;54.20;;;;;;5117445;28;20337;-76
2022/07/28 12:37:23;;;;;;;4.78;0.45;;;26.10;55.40;;;;;;5117549;28;20023;-76
2022/07/28 12:39:51;;;;;;;1.58;0.00;;;26.40;54.80;;;;;;5117737;28;20097;-76
2022/07/28 12:42:18;;;;;;;0.38;0.00;;;26.80;52.90;;;;;;5117239;28;20019;-77
2022/07/28 12:44:50;;;;;;;0.60;0.00;;;27.10;52.40;;;;;;5115973;28;20053;-77
2022/07/28 12:47:24;;;;;;;1.35;0.10;;;27.60;52.40;;;;;;5117209;28;20431;-77
2022/07/28 12:50:11;;;;;;;0.20;0.00;;;27.90;50.50;;;;;;5117633;28;20020;-77
2022/07/28 12:52:37;;;;;;;0.00;0.00;;;28.10;50.70;;;;;;5117211;28;20043;-77
2022/07/28 12:55:20;;;;;;;1.08;0.00;;;28.50;51.00;;;;;;5116958;28;20062;-77